Time;durP1;ratioP1;P1;durP2;ratioP2;P2;SDS_P1;SDS_P2;PMS_P1;PMS_P2;Temp;Humidity;BMP_temperature;BMP_pressure;BME280_temperature;BME280_humidity;BME280_pressure;Samples;Min_cycle;Max_cycle;Signal;HPM_P1;HPM_P2
2020/12/05 00:00:33;;;;;;;25.70;15.95;;;4.50;99.90;;;;;;5090060;28;20020;-60
2020/12/05 00:02:58;;;;;;;24.67;14.93;;;4.50;99.90;;;;;;5089622;28;20110;-60
2020/12/05 00:05:24;;;;;;;27.77;15.75;;;4.50;99.90;;;;;;5089698;28;20052;-59
2020/12/05 00:07:50;;;;;;;32.97;16.70;;;4.60;99.90;;;;;;5090399;28;20031;-59
2020/12/05 00:10:16;;;;;;;29.60;15.43;;;4.70;99.90;;;;;;5090521;28;20453;-60
2020/12/05 00:12:42;;;;;;;27.80;15.75;;;4.70;99.90;;;;;;5089090;28;20052;-59
2020/12/05 00:15:07;;;;;;;20.02;13.27;;;4.70;99.90;;;;;;5091705;28;20066;-65
2020/12/05 00:17:33;;;;;;;22.95;13.88;;;5.40;99.90;;;;;;5089547;28;20434;-67
2020/12/05 00:19:59;;;;;;;21.08;13.70;;;6.00;99.90;;;;;;5089710;28;20035;-58
2020/12/05 00:22:25;;;;;;;26.98;15.48;;;5.70;99.90;;;;;;5089121;28;20032;-59
2020/12/05 00:24:51;;;;;;;26.38;14.63;;;5.50;99.90;;;;;;5089999;28;20053;-59
2020/12/05 00:27:20;;;;;;;26.38;15.25;;;5.30;99.90;;;;;;5090796;28;20357;-59
2020/12/05 00:29:47;;;;;;;24.10;14.88;;;5.20;99.90;;;;;;5090163;28;20028;-59
2020/12/05 00:32:13;;;;;;;28.08;16.10;;;5.10;99.90;;;;;;5076895;28;20035;-58
2020/12/05 00:34:39;;;;;;;26.13;15.13;;;5.00;99.90;;;;;;5079336;28;20377;-60
2020/12/05 00:37:04;;;;;;;25.08;17.33;;;5.00;99.90;;;;;;5078493;28;20355;-59
2020/12/05 00:39:30;;;;;;;28.00;16.38;;;4.90;99.90;;;;;;5084883;28;20103;-59
2020/12/05 00:41:56;;;;;;;27.33;16.23;;;4.90;99.90;;;;;;5080645;28;20030;-59
2020/12/05 00:44:22;;;;;;;26.27;14.30;;;4.90;99.90;;;;;;5097775;28;20437;-59
2020/12/05 00:46:47;;;;;;;24.45;14.60;;;4.90;99.90;;;;;;5098049;28;20111;-59
2020/12/05 00:49:13;;;;;;;25.60;15.73;;;4.80;99.90;;;;;;5079762;28;20020;-59
2020/12/05 00:51:39;;;;;;;26.48;15.75;;;4.90;99.90;;;;;;5084159;28;20487;-60
2020/12/05 00:54:04;;;;;;;26.10;15.05;;;4.90;99.90;;;;;;5084357;28;20023;-59
2020/12/05 00:56:30;;;;;;;28.20;15.00;;;4.90;99.90;;;;;;5083699;28;20023;-60
2020/12/05 00:58:56;;;;;;;27.65;16.10;;;4.90;99.90;;;;;;5102884;28;20019;-59
2020/12/05 01:01:21;;;;;;;23.58;15.55;;;4.90;99.90;;;;;;5104156;28;20028;-60
2020/12/05 01:03:47;;;;;;;23.08;14.27;;;4.80;99.90;;;;;;5083894;28;20065;-59
2020/12/05 01:06:14;;;;;;;23.17;15.60;;;4.90;99.90;;;;;;5101827;28;20028;-59
2020/12/05 01:08:40;;;;;;;26.40;15.15;;;4.80;99.90;;;;;;5081584;28;20027;-58
2020/12/05 01:11:18;;;;;;;29.88;16.05;;;4.70;99.90;;;;;;5079100;28;20035;-59
2020/12/05 01:13:44;;;;;;;28.92;15.38;;;4.70;99.90;;;;;;5082342;28;20029;-59
2020/12/05 01:16:20;;;;;;;27.80;15.60;;;4.70;99.90;;;;;;5099496;28;20042;-62
2020/12/05 01:18:46;;;;;;;26.63;15.23;;;4.70;99.90;;;;;;5074984;28;20131;-59
2020/12/05 01:21:15;;;;;;;22.65;15.07;;;4.70;99.90;;;;;;5078071;28;20027;-62
2020/12/05 01:23:42;;;;;;;27.73;16.38;;;4.70;99.90;;;;;;5078966;28;20035;-59
2020/12/05 01:26:08;;;;;;;23.75;14.60;;;4.70;99.90;;;;;;5100126;28;20469;-59
2020/12/05 01:28:34;;;;;;;24.15;14.43;;;4.70;99.90;;;;;;5103971;28;20019;-59
2020/12/05 01:31:01;;;;;;;25.35;15.85;;;4.80;99.90;;;;;;5101540;28;20066;-59
2020/12/05 01:33:27;;;;;;;24.40;14.48;;;4.80;99.90;;;;;;5100170;28;20054;-59
2020/12/05 01:35:53;;;;;;;28.08;16.08;;;4.70;99.90;;;;;;5080807;28;20012;-60
2020/12/05 01:38:18;;;;;;;27.92;15.18;;;4.70;99.90;;;;;;5070947;28;20340;-59
2020/12/05 01:40:58;;;;;;;24.40;15.07;;;4.70;99.90;;;;;;5090064;28;20024;-59
2020/12/05 01:43:25;;;;;;;29.60;16.73;;;4.70;99.90;;;;;;5071734;28;20093;-59
2020/12/05 01:45:51;;;;;;;27.88;15.65;;;4.50;99.90;;;;;;5072154;28;20051;-59
2020/12/05 01:48:18;;;;;;;26.40;16.13;;;4.50;99.90;;;;;;5089766;28;20027;-59
2020/12/05 01:50:44;;;;;;;27.15;16.63;;;4.60;99.90;;;;;;5091020;28;20020;-58
2020/12/05 01:53:16;;;;;;;27.35;17.92;;;4.50;99.90;;;;;;5072138;28;20078;-59
2020/12/05 01:55:45;;;;;;;29.45;16.20;;;4.50;99.90;;;;;;5091396;28;20020;-59
2020/12/05 01:58:12;;;;;;;23.83;14.77;;;4.40;99.90;;;;;;5090546;28;20157;-58
2020/12/05 02:00:39;;;;;;;29.52;16.65;;;4.50;99.90;;;;;;5072629;28;20022;-59
2020/12/05 02:03:05;;;;;;;26.13;14.82;;;4.40;99.90;;;;;;5106649;28;20043;-59
2020/12/05 02:05:54;;;;;;;25.42;15.82;;;4.40;99.90;;;;;;5095056;28;20020;-59
2020/12/05 02:08:29;;;;;;;32.08;17.55;;;4.40;99.90;;;;;;5096065;28;20062;-59
2020/12/05 02:10:57;;;;;;;25.10;15.20;;;4.40;99.90;;;;;;5096517;28;20127;-59
2020/12/05 02:13:39;;;;;;;23.77;16.17;;;4.40;99.90;;;;;;5096429;28;20051;-60
2020/12/05 02:16:05;;;;;;;;;;;4.30;99.90;;;;;;5115523;28;20047;-59
2020/12/05 02:18:32;;;;;;;26.85;15.55;;;4.10;99.90;;;;;;5095555;28;19939;-59
2020/12/05 02:21:02;;;;;;;28.30;16.00;;;4.20;99.90;;;;;;5115109;28;20045;-59
2020/12/05 02:23:28;;;;;;;25.92;15.68;;;4.10;99.90;;;;;;5095955;28;20334;-59
2020/12/05 02:26:05;;;;;;;26.35;16.50;;;4.20;99.90;;;;;;5114616;28;20026;-59
2020/12/05 02:28:32;;;;;;;24.65;15.90;;;4.00;99.90;;;;;;5095908;28;20058;-59
2020/12/05 02:30:58;;;;;;;29.17;18.17;;;3.90;99.90;;;;;;5114361;28;20425;-59
2020/12/05 02:33:24;;;;;;;27.90;17.33;;;3.80;99.90;;;;;;5113401;28;20030;-59
2020/12/05 02:35:50;;;;;;;27.45;16.73;;;3.70;99.90;;;;;;5114958;28;20092;-59
2020/12/05 02:38:48;;;;;;;30.38;17.63;;;3.70;99.90;;;;;;5096287;28;20350;-60
2020/12/05 02:41:14;;;;;;;27.23;15.70;;;3.50;99.90;;;;;;5100164;28;20035;-60
2020/12/05 02:43:40;;;;;;;27.13;16.95;;;3.70;99.90;;;;;;5114416;28;20031;-60
2020/12/05 02:46:07;;;;;;;28.02;16.75;;;3.60;99.90;;;;;;5095846;28;20043;-59
2020/12/05 02:48:32;;;;;;;28.85;17.02;;;3.40;99.90;;;;;;5113643;28;20302;-60
2020/12/05 02:50:58;;;;;;;26.17;16.80;;;3.60;99.90;;;;;;5114302;28;20026;-58
2020/12/05 02:53:23;;;;;;;28.70;17.17;;;3.60;99.90;;;;;;5095125;28;20024;-59
2020/12/05 02:55:49;;;;;;;32.08;17.27;;;3.50;99.90;;;;;;5095881;28;20031;-59
2020/12/05 02:58:15;;;;;;;32.67;17.63;;;3.50;99.90;;;;;;5113920;28;20023;-59
2020/12/05 03:00:41;;;;;;;26.33;15.30;;;3.50;99.90;;;;;;5095937;28;20081;-61
2020/12/05 03:03:07;;;;;;;28.77;17.02;;;3.60;99.90;;;;;;5078920;28;20036;-59
2020/12/05 03:05:32;;;;;;;27.70;16.83;;;3.70;99.90;;;;;;5074950;28;20023;-61
2020/12/05 03:07:58;;;;;;;33.33;18.95;;;3.80;99.90;;;;;;5075606;28;20020;-61
2020/12/05 03:10:24;;;;;;;25.73;15.93;;;3.80;99.90;;;;;;5074615;28;20024;-61
2020/12/05 03:12:49;;;;;;;27.77;16.13;;;3.80;99.90;;;;;;5093601;28;20059;-60
2020/12/05 03:15:15;;;;;;;30.85;16.65;;;3.70;99.90;;;;;;5093549;28;20405;-59
2020/12/05 03:17:41;;;;;;;24.52;15.40;;;3.70;99.90;;;;;;5092884;28;20388;-59
2020/12/05 03:20:06;;;;;;;29.02;16.35;;;3.70;99.90;;;;;;5092966;28;20020;-60
2020/12/05 03:22:33;;;;;;;25.35;14.48;;;3.70;99.90;;;;;;5092923;28;20028;-59
2020/12/05 03:24:58;;;;;;;29.60;16.95;;;3.90;99.90;;;;;;5075127;28;20410;-59
2020/12/05 03:27:24;;;;;;;31.90;17.50;;;3.70;99.90;;;;;;5074575;28;20149;-61
2020/12/05 03:29:52;;;;;;;28.70;16.60;;;3.70;99.90;;;;;;5093484;28;20027;-61
2020/12/05 03:32:28;;;;;;;27.58;16.60;;;3.70;99.90;;;;;;5094783;28;20338;-64
2020/12/05 03:34:53;;;;;;;31.08;18.60;;;3.70;99.90;;;;;;5095155;28;20039;-59
2020/12/05 03:37:20;;;;;;;29.73;17.20;;;3.50;99.90;;;;;;5113298;28;20028;-61
2020/12/05 03:39:45;;;;;;;28.92;15.95;;;3.50;99.90;;;;;;5094977;28;20126;-61
2020/12/05 03:42:11;;;;;;;29.38;16.27;;;3.40;99.90;;;;;;5095228;28;20219;-61
2020/12/05 03:44:37;;;;;;;30.05;18.15;;;3.40;99.90;;;;;;5093958;28;20032;-60
2020/12/05 03:47:02;;;;;;;28.42;16.25;;;3.20;99.90;;;;;;5095247;28;20028;-59
2020/12/05 03:49:32;;;;;;;36.17;19.05;;;3.30;99.90;;;;;;5112451;28;20041;-59
2020/12/05 03:52:01;;;;;;;33.10;18.90;;;3.50;99.90;;;;;;5094903;28;20024;-60
2020/12/05 03:54:27;;;;;;;28.48;17.60;;;3.30;99.90;;;;;;5094299;28;20080;-60
2020/12/05 03:56:52;;;;;;;29.25;16.90;;;3.40;99.90;;;;;;5094644;28;20020;-60
2020/12/05 03:59:19;;;;;;;31.88;16.98;;;3.40;99.90;;;;;;5094628;28;20020;-59
2020/12/05 04:01:45;;;;;;;29.60;17.85;;;3.40;99.90;;;;;;5094734;28;20409;-60
2020/12/05 04:04:10;;;;;;;31.00;18.77;;;3.50;99.90;;;;;;5112697;28;20062;-61
2020/12/05 04:06:36;;;;;;;31.17;18.65;;;3.40;99.90;;;;;;5112081;28;20051;-60
2020/12/05 04:09:02;;;;;;;29.83;16.73;;;3.40;99.90;;;;;;5112863;28;20015;-61
2020/12/05 04:11:28;;;;;;;31.38;17.55;;;3.20;99.90;;;;;;5094020;28;20031;-59
2020/12/05 04:13:53;;;;;;;29.95;17.65;;;3.20;99.90;;;;;;5094487;28;20027;-59
2020/12/05 04:16:19;;;;;;;30.17;17.52;;;3.00;99.90;;;;;;5094420;28;20372;-59
2020/12/05 04:18:45;;;;;;;30.27;17.00;;;3.10;99.90;;;;;;5113429;28;20032;-59
2020/12/05 04:21:11;;;;;;;34.63;17.45;;;3.00;99.90;;;;;;5115116;28;20019;-59
2020/12/05 04:23:36;;;;;;;32.88;18.50;;;2.90;99.90;;;;;;5114552;28;20023;-59
2020/12/05 04:26:02;;;;;;;28.63;17.65;;;2.90;99.90;;;;;;5114114;28;20102;-60
2020/12/05 04:28:28;;;;;;;33.97;18.08;;;2.90;99.90;;;;;;5094784;28;20066;-62
2020/12/05 04:30:53;;;;;;;29.77;18.02;;;2.90;99.90;;;;;;5095526;28;20027;-59
2020/12/05 04:33:19;;;;;;;30.15;19.20;;;2.80;99.90;;;;;;5094577;28;20085;-59
2020/12/05 04:35:45;;;;;;;33.13;18.60;;;2.70;99.90;;;;;;5111971;28;20495;-59
2020/12/05 04:38:10;;;;;;;36.38;18.48;;;2.70;99.90;;;;;;5095261;28;20051;-61
2020/12/05 04:40:36;;;;;;;31.45;18.85;;;2.80;99.90;;;;;;5095186;28;20076;-61
2020/12/05 04:43:03;;;;;;;30.42;17.55;;;2.90;99.90;;;;;;5094879;28;20070;-59
2020/12/05 04:45:30;;;;;;;34.72;17.85;;;2.80;99.90;;;;;;5112437;28;20476;-59
2020/12/05 04:47:56;;;;;;;34.30;19.75;;;2.80;99.90;;;;;;5112889;28;20031;-59
2020/12/05 04:50:24;;;;;;;28.58;18.13;;;2.70;99.90;;;;;;5095671;28;20026;-64
2020/12/05 04:52:52;;;;;;;34.65;17.67;;;2.90;99.90;;;;;;5095793;28;20116;-59
2020/12/05 04:55:23;;;;;;;35.42;18.88;;;3.00;99.90;;;;;;5112386;28;20040;-60
2020/12/05 04:57:59;;;;;;;32.08;19.08;;;2.90;99.90;;;;;;5093962;28;20015;-60
2020/12/05 05:00:26;;;;;;;31.58;18.20;;;3.10;99.90;;;;;;5111360;28;20453;-61
2020/12/05 05:03:05;;;;;;;30.80;17.10;;;3.10;99.90;;;;;;5111751;28;20024;-60
2020/12/05 05:05:31;;;;;;;30.42;17.23;;;3.20;99.90;;;;;;5110804;28;20042;-60
2020/12/05 05:07:56;;;;;;;30.25;16.27;;;3.30;99.90;;;;;;5111507;28;20449;-61
2020/12/05 05:10:30;;;;;;;33.78;18.02;;;3.30;99.90;;;;;;5093306;28;20031;-60
2020/12/05 05:13:19;;;;;;;32.35;17.33;;;3.30;99.90;;;;;;5111756;28;20072;-60
2020/12/05 05:15:45;;;;;;;33.22;18.75;;;3.40;99.90;;;;;;5092834;28;20054;-60
2020/12/05 05:18:11;;;;;;;30.55;17.83;;;3.40;99.90;;;;;;5093456;28;20020;-60
2020/12/05 05:20:44;;;;;;;34.10;19.35;;;3.40;99.90;;;;;;5092295;28;20028;-61
2020/12/05 05:23:15;;;;;;;32.92;18.63;;;3.40;99.90;;;;;;5093206;28;20069;-59
2020/12/05 05:26:07;;;;;;;34.80;19.80;;;3.30;99.90;;;;;;5092690;28;20088;-60
2020/12/05 05:28:39;;;;;;;35.58;19.55;;;3.20;99.90;;;;;;5106941;28;20123;-60
2020/12/05 05:33:42;;;;;;;33.58;18.40;;;3.30;99.90;;;;;;5091986;28;20043;-60
2020/12/05 05:36:25;;;;;;;33.08;19.00;;;3.30;99.90;;;;;;5091480;28;20401;-60
2020/12/05 05:38:59;;;;;;;31.25;17.88;;;3.30;99.90;;;;;;5073918;28;20039;-59
2020/12/05 05:41:26;;;;;;;33.60;20.17;;;3.50;99.90;;;;;;5079346;28;20070;-66
2020/12/05 05:43:58;;;;;;;32.42;16.85;;;3.50;99.90;;;;;;5097149;28;20115;-60
2020/12/05 05:46:34;;;;;;;34.50;18.67;;;3.30;99.90;;;;;;5075669;28;20052;-59
2020/12/05 05:49:02;;;;;;;30.58;18.45;;;3.10;99.90;;;;;;5075975;28;20029;-59
2020/12/05 05:51:49;;;;;;;31.67;18.17;;;3.20;99.90;;;;;;5078147;28;20050;-63
2020/12/05 05:54:15;;;;;;;31.55;17.48;;;3.30;99.90;;;;;;5076593;28;20028;-60
2020/12/05 05:56:54;;;;;;;30.67;17.40;;;3.20;99.90;;;;;;5074909;28;20046;-60
2020/12/05 05:59:21;;;;;;;33.38;17.83;;;3.20;99.90;;;;;;5076940;28;20349;-59
2020/12/05 06:01:50;;;;;;;33.35;19.17;;;3.10;99.90;;;;;;5079676;28;20449;-59
2020/12/05 06:04:29;;;;;;;34.45;19.13;;;3.10;99.90;;;;;;5095905;28;20032;-60
2020/12/05 06:06:57;;;;;;;35.28;20.75;;;3.20;99.90;;;;;;5095680;28;20024;-60
2020/12/05 06:09:48;;;;;;;33.72;18.00;;;3.10;99.90;;;;;;5096062;28;20016;-59
2020/12/05 06:12:25;;;;;;;34.67;20.23;;;3.10;99.90;;;;;;5085288;28;20036;-59
2020/12/05 06:14:53;;;;;;;36.13;19.48;;;3.10;99.90;;;;;;5092741;28;20032;-61
2020/12/05 06:17:20;;;;;;;37.72;20.38;;;3.10;99.90;;;;;;5093213;28;20068;-60
2020/12/05 06:19:47;;;;;;;36.78;19.60;;;3.10;99.90;;;;;;5093618;28;20020;-61
2020/12/05 06:22:31;;;;;;;32.95;18.67;;;3.30;99.90;;;;;;5093269;28;20024;-60
2020/12/05 06:25:15;;;;;;;37.83;21.17;;;3.30;99.90;;;;;;5094382;28;20161;-59
2020/12/05 06:27:42;;;;;;;43.67;20.85;;;3.30;99.90;;;;;;5092370;28;20044;-61
2020/12/05 06:30:09;;;;;;;40.60;22.58;;;3.30;99.90;;;;;;5094598;28;20453;-60
2020/12/05 06:32:42;;;;;;;39.05;20.95;;;3.30;99.90;;;;;;5081789;28;20127;-59
2020/12/05 06:35:22;;;;;;;55.22;24.52;;;3.20;99.90;;;;;;5072239;28;20065;-59
2020/12/05 06:37:57;;;;;;;40.38;20.83;;;3.30;99.90;;;;;;5072012;28;20182;-61
2020/12/05 06:40:24;;;;;;;38.17;21.00;;;3.40;99.90;;;;;;5073554;28;20104;-61
2020/12/05 06:42:53;;;;;;;39.28;22.65;;;3.50;99.90;;;;;;5073335;28;20032;-60
2020/12/05 06:45:28;;;;;;;36.58;20.23;;;3.50;99.90;;;;;;5072194;28;20139;-60
2020/12/05 06:47:54;;;;;;;35.40;21.58;;;3.50;99.90;;;;;;5071710;28;20465;-60
2020/12/05 06:50:37;;;;;;;36.45;20.75;;;3.70;99.90;;;;;;5071783;28;20078;-60
2020/12/05 06:53:22;;;;;;;36.08;20.52;;;3.60;99.90;;;;;;5071996;28;20020;-59
2020/12/05 06:55:53;;;;;;;37.13;20.52;;;3.60;99.90;;;;;;5071126;28;20448;-59
2020/12/05 06:58:26;;;;;;;38.58;20.98;;;3.50;99.90;;;;;;5073386;28;20028;-60
2020/12/05 07:00:52;;;;;;;44.83;21.02;;;3.50;99.90;;;;;;5072949;28;20450;-60
2020/12/05 07:03:30;;;;;;;40.60;22.52;;;3.60;99.90;;;;;;5071897;28;20032;-59
2020/12/05 07:05:57;;;;;;;40.70;20.67;;;3.60;99.90;;;;;;5073219;28;20379;-61
2020/12/05 07:08:27;;;;;;;40.90;21.13;;;3.50;99.90;;;;;;5073303;28;20024;-62
2020/12/05 07:10:56;;;;;;;36.88;20.90;;;3.50;99.90;;;;;;5072358;28;20028;-59
2020/12/05 07:13:36;;;;;;;42.15;22.90;;;3.50;99.90;;;;;;5071550;28;20486;-60
2020/12/05 07:16:23;;;;;;;38.17;21.38;;;3.50;99.90;;;;;;5071999;28;20111;-59
2020/12/05 07:18:54;;;;;;;39.58;21.63;;;3.50;99.90;;;;;;5070707;28;20031;-59
2020/12/05 07:21:21;;;;;;;44.97;21.40;;;3.50;99.90;;;;;;5071297;28;20115;-59
2020/12/05 07:23:47;;;;;;;40.88;21.42;;;3.50;99.90;;;;;;5070855;28;20538;-59
2020/12/05 07:26:14;;;;;;;39.97;20.77;;;3.50;99.90;;;;;;5071495;28;20024;-59
2020/12/05 07:28:45;;;;;;;41.03;23.50;;;3.50;99.90;;;;;;5070890;28;20025;-59
2020/12/05 07:31:11;;;;;;;47.90;21.98;;;3.50;99.90;;;;;;5084622;28;20032;-60
2020/12/05 07:33:39;;;;;;;42.45;22.60;;;3.50;99.90;;;;;;5091026;28;20059;-59
2020/12/05 07:36:06;;;;;;;51.38;25.48;;;3.40;99.90;;;;;;5091544;28;20395;-60
2020/12/05 07:38:34;;;;;;;40.15;21.52;;;3.50;99.90;;;;;;5091345;28;20020;-62
2020/12/05 07:41:11;;;;;;;37.70;21.25;;;3.50;99.90;;;;;;5091399;28;20031;-59
2020/12/05 07:43:37;;;;;;;38.63;21.65;;;3.50;99.90;;;;;;5092252;28;20043;-61
2020/12/05 07:46:05;;;;;;;39.90;22.15;;;3.70;99.90;;;;;;5091100;28;20123;-59
2020/12/05 07:48:31;;;;;;;40.30;21.50;;;3.50;99.90;;;;;;5093699;28;20050;-60
2020/12/05 07:50:57;;;;;;;41.60;23.45;;;3.60;99.90;;;;;;5091034;28;20024;-60
2020/12/05 07:53:30;;;;;;;38.42;22.13;;;3.50;99.90;;;;;;5091394;28;20081;-61
2020/12/05 07:55:56;;;;;;;39.55;21.17;;;3.60;99.90;;;;;;5092234;28;20020;-61
2020/12/05 07:58:22;;;;;;;38.78;21.63;;;3.70;99.90;;;;;;5092635;28;20103;-61
2020/12/05 08:00:52;;;;;;;42.17;21.45;;;3.60;99.90;;;;;;5090533;28;20026;-60
2020/12/05 08:03:50;;;;;;;38.88;22.77;;;3.60;99.90;;;;;;5072337;28;20055;-61
2020/12/05 08:06:44;;;;;;;41.72;21.90;;;3.60;99.90;;;;;;5070264;28;20025;-60
2020/12/05 08:09:18;;;;;;;36.88;21.77;;;3.70;99.90;;;;;;5071414;28;20071;-60
2020/12/05 08:11:50;;;;;;;38.30;21.95;;;3.70;99.90;;;;;;5069708;28;20025;-60
2020/12/05 08:14:16;;;;;;;38.75;21.58;;;3.70;99.90;;;;;;5071215;28;20046;-60
2020/12/05 08:16:43;;;;;;;41.47;21.75;;;3.80;99.90;;;;;;5070086;28;20036;-61
2020/12/05 08:19:08;;;;;;;41.85;21.98;;;4.00;99.90;;;;;;5072265;28;20102;-60
2020/12/05 08:21:35;;;;;;;42.13;21.25;;;4.00;99.90;;;;;;5071845;28;20020;-64
2020/12/05 08:24:10;;;;;;;37.90;21.60;;;4.00;99.90;;;;;;5072089;28;20032;-61
2020/12/05 08:26:37;;;;;;;38.10;21.33;;;3.90;99.90;;;;;;5069779;28;20047;-62
2020/12/05 08:29:07;;;;;;;44.00;22.33;;;4.00;99.90;;;;;;5071955;28;20121;-62
2020/12/05 08:31:39;;;;;;;41.13;21.48;;;4.10;99.90;;;;;;5086020;28;20035;-61
2020/12/05 08:34:05;;;;;;;44.15;24.58;;;4.20;99.90;;;;;;5091872;28;20023;-62
2020/12/05 08:36:33;;;;;;;41.08;22.33;;;4.10;99.90;;;;;;5092143;28;20024;-62
2020/12/05 08:39:08;;;;;;;44.83;24.13;;;4.00;99.90;;;;;;5091694;28;20330;-62
2020/12/05 08:41:52;;;;;;;45.05;24.00;;;4.20;99.90;;;;;;5090540;28;20112;-60
2020/12/05 08:44:20;;;;;;;36.22;20.95;;;4.30;99.90;;;;;;5090999;28;20028;-61
2020/12/05 08:46:59;;;;;;;46.80;23.92;;;4.40;99.90;;;;;;5089755;28;20062;-66
2020/12/05 08:49:25;;;;;;;45.22;23.85;;;4.30;99.90;;;;;;5090423;28;20031;-62
2020/12/05 08:51:53;;;;;;;45.10;24.23;;;4.30;99.90;;;;;;5089486;28;20020;-62
2020/12/05 08:54:21;;;;;;;42.92;23.90;;;4.40;99.90;;;;;;5090045;28;20028;-61
2020/12/05 08:56:47;;;;;;;41.05;23.38;;;4.50;99.90;;;;;;5089516;28;20119;-61
2020/12/05 08:59:25;;;;;;;42.45;23.20;;;4.40;99.90;;;;;;5090209;28;20027;-61
2020/12/05 09:01:56;;;;;;;42.60;22.77;;;4.50;99.90;;;;;;5084012;28;20032;-61
2020/12/05 09:04:29;;;;;;;43.33;23.48;;;4.50;99.90;;;;;;5070986;28;20033;-61
2020/12/05 09:07:12;;;;;;;42.45;24.63;;;4.40;99.90;;;;;;5069417;28;20115;-61
2020/12/05 09:09:41;;;;;;;43.00;22.52;;;4.50;99.90;;;;;;5069532;28;20032;-65
2020/12/05 09:12:09;;;;;;;46.63;24.70;;;4.50;99.90;;;;;;5071356;28;20028;-61
2020/12/05 09:14:36;;;;;;;46.33;25.17;;;4.40;99.90;;;;;;5069557;28;20031;-59
2020/12/05 09:17:03;;;;;;;41.28;23.27;;;4.60;99.90;;;;;;5069050;28;20350;-60
2020/12/05 09:19:32;;;;;;;44.25;25.17;;;4.60;99.90;;;;;;5069361;28;20445;-61
2020/12/05 09:21:58;;;;;;;42.17;22.38;;;4.60;99.90;;;;;;5068843;28;20060;-60
2020/12/05 09:24:24;;;;;;;45.78;24.02;;;4.60;99.90;;;;;;5070860;28;20462;-61
2020/12/05 09:26:59;;;;;;;41.97;24.00;;;4.50;99.90;;;;;;5069845;28;20049;-59
2020/12/05 09:29:25;;;;;;;47.58;26.52;;;4.60;99.90;;;;;;5070830;28;20028;-60
2020/12/05 09:31:56;;;;;;;39.47;23.95;;;4.50;99.90;;;;;;5084697;28;20045;-61
2020/12/05 09:34:34;;;;;;;53.93;24.60;;;4.60;99.90;;;;;;5090506;28;20036;-61
2020/12/05 09:37:00;;;;;;;35.97;20.40;;;4.70;99.90;;;;;;5090266;28;20719;-62
2020/12/05 09:39:26;;;;;;;47.67;25.45;;;4.70;99.90;;;;;;5091017;28;20158;-60
2020/12/05 09:41:51;;;;;;;44.13;23.70;;;4.70;99.90;;;;;;5088753;28;20037;-60
2020/12/05 09:44:17;;;;;;;37.55;23.73;;;4.50;99.90;;;;;;5090608;28;20457;-59
2020/12/05 09:46:43;;;;;;;41.30;24.55;;;4.60;99.90;;;;;;5108298;28;20096;-62
2020/12/05 09:49:09;;;;;;;46.50;25.63;;;4.60;99.90;;;;;;5110942;28;20411;-64
2020/12/05 09:51:34;;;;;;;43.13;20.98;;;4.70;99.90;;;;;;5093058;28;20108;-61
2020/12/05 09:54:00;;;;;;;37.42;20.90;;;4.50;99.90;;;;;;5092286;28;20032;-62
2020/12/05 09:56:26;;;;;;;30.65;20.38;;;4.30;99.90;;;;;;5093178;28;20032;-62
2020/12/05 09:58:51;;;;;;;32.38;19.55;;;4.30;99.90;;;;;;5092179;28;20028;-62
2020/12/05 10:01:17;;;;;;;35.80;19.65;;;4.30;99.90;;;;;;5111155;28;20040;-62
2020/12/05 10:03:43;;;;;;;31.05;19.67;;;4.50;99.90;;;;;;5091884;28;20032;-62
2020/12/05 10:06:08;;;;;;;31.95;18.95;;;4.80;99.90;;;;;;5092789;28;20063;-60
2020/12/05 10:08:34;;;;;;;32.40;18.70;;;4.90;99.90;;;;;;5092965;28;20336;-62
2020/12/05 10:11:00;;;;;;;35.22;20.63;;;4.90;99.90;;;;;;5092031;28;20511;-61
2020/12/05 10:13:25;;;;;;;33.10;19.42;;;5.00;99.90;;;;;;5111044;28;20044;-60
2020/12/05 10:15:51;;;;;;;34.35;17.90;;;4.90;99.90;;;;;;5091793;28;20317;-59
2020/12/05 10:18:17;;;;;;;33.53;19.02;;;4.90;99.90;;;;;;5092289;28;20423;-59
2020/12/05 10:20:42;;;;;;;28.10;18.25;;;5.10;99.90;;;;;;5091479;28;20063;-61
2020/12/05 10:23:08;;;;;;;27.85;16.80;;;5.30;99.90;;;;;;5110724;28;20035;-59
2020/12/05 10:25:34;;;;;;;27.40;18.23;;;5.40;99.90;;;;;;5112056;28;20019;-60
2020/12/05 10:27:59;;;;;;;28.70;15.98;;;5.50;99.90;;;;;;5095471;28;20052;-60
2020/12/05 10:30:25;;;;;;;25.67;17.02;;;5.40;99.90;;;;;;5095540;28;20114;-59
2020/12/05 10:32:50;;;;;;;24.35;14.23;;;5.60;99.90;;;;;;5080799;28;20024;-59
2020/12/05 10:35:16;;;;;;;24.17;15.65;;;5.70;99.90;;;;;;5075620;28;20032;-61
2020/12/05 10:37:42;;;;;;;18.42;11.95;;;5.70;99.90;;;;;;5075652;28;20411;-61
2020/12/05 10:40:08;;;;;;;17.05;10.80;;;5.80;99.90;;;;;;5075550;28;20116;-62
2020/12/05 10:42:33;;;;;;;15.73;10.63;;;5.80;99.90;;;;;;5094056;28;20064;-61
2020/12/05 10:44:59;;;;;;;19.25;12.88;;;6.00;99.90;;;;;;5075374;28;20242;-61
2020/12/05 10:47:25;;;;;;;18.40;11.23;;;6.00;99.90;;;;;;5075125;28;20465;-61
2020/12/05 10:49:51;;;;;;;15.82;10.80;;;6.10;99.90;;;;;;5084875;28;20034;-61
2020/12/05 10:52:16;;;;;;;16.52;11.48;;;5.90;99.90;;;;;;5088067;28;20028;-60
2020/12/05 10:54:42;;;;;;;19.40;10.90;;;5.80;99.90;;;;;;5099684;28;20506;-59
2020/12/05 10:57:08;;;;;;;19.77;10.50;;;5.90;99.90;;;;;;5082653;28;20476;-60
2020/12/05 10:59:33;;;;;;;17.73;11.82;;;5.90;99.90;;;;;;5083993;28;20071;-63
2020/12/05 11:01:59;;;;;;;18.75;11.30;;;5.90;99.90;;;;;;5084107;28;20068;-59
2020/12/05 11:04:25;;;;;;;24.27;14.80;;;5.90;99.90;;;;;;5087394;28;20035;-60
2020/12/05 11:06:51;;;;;;;28.25;16.98;;;6.00;99.90;;;;;;5107286;28;20023;-60
2020/12/05 11:09:16;;;;;;;27.45;17.85;;;6.00;99.90;;;;;;5093657;28;20054;-60
2020/12/05 11:11:45;;;;;;;31.27;18.33;;;5.60;99.90;;;;;;5081319;28;20081;-61
2020/12/05 11:14:10;;;;;;;36.55;20.55;;;5.70;99.90;;;;;;5107402;28;20051;-62
2020/12/05 11:16:36;;;;;;;28.85;17.30;;;5.50;99.90;;;;;;5101003;28;20054;-61
2020/12/05 11:19:02;;;;;;;27.83;18.08;;;5.30;99.90;;;;;;5081113;28;20024;-61
2020/12/05 11:21:28;;;;;;;27.83;18.70;;;5.40;99.90;;;;;;5089578;28;20164;-61
2020/12/05 11:23:53;;;;;;;30.35;17.73;;;5.60;99.90;;;;;;5073323;28;20119;-61
2020/12/05 11:26:20;;;;;;;24.77;18.00;;;5.50;99.90;;;;;;5098642;28;20036;-61
2020/12/05 11:28:46;;;;;;;26.45;17.83;;;5.70;99.90;;;;;;5105405;28;20107;-63
2020/12/05 11:31:12;;;;;;;26.67;18.23;;;5.50;99.90;;;;;;5093448;28;20118;-60
2020/12/05 11:33:38;;;;;;;25.27;17.27;;;5.50;99.90;;;;;;5094262;28;20024;-60
2020/12/05 11:36:03;;;;;;;23.70;15.55;;;5.70;99.90;;;;;;5111254;28;20055;-60
2020/12/05 11:38:29;;;;;;;25.65;15.15;;;5.60;99.90;;;;;;5092904;28;20026;-60
2020/12/05 11:40:55;;;;;;;22.58;15.50;;;5.20;99.90;;;;;;5093321;28;20028;-60
2020/12/05 11:43:21;;;;;;;23.20;15.80;;;5.20;99.90;;;;;;5093469;28;20124;-60
2020/12/05 11:45:47;;;;;;;20.92;15.18;;;5.40;99.90;;;;;;5111641;28;20135;-65
2020/12/05 11:48:12;;;;;;;28.75;16.25;;;5.30;99.90;;;;;;5093584;28;20469;-61
2020/12/05 11:50:38;;;;;;;22.85;14.90;;;5.30;99.90;;;;;;5094249;28;20028;-60
2020/12/05 11:53:06;;;;;;;22.10;15.77;;;5.40;99.90;;;;;;5110991;28;20035;-61
2020/12/05 11:55:32;;;;;;;22.45;16.55;;;5.30;99.90;;;;;;5093371;28;20039;-60
2020/12/05 11:57:58;;;;;;;20.58;14.90;;;5.30;99.90;;;;;;5093359;28;20028;-60
2020/12/05 12:00:25;;;;;;;19.90;14.50;;;5.40;99.90;;;;;;5093166;28;20027;-61
2020/12/05 12:02:54;;;;;;;21.52;14.15;;;5.60;99.90;;;;;;5110634;28;20164;-62
2020/12/05 12:05:20;;;;;;;24.48;14.20;;;5.50;99.90;;;;;;5093224;28;20032;-61
2020/12/05 12:07:47;;;;;;;19.88;15.00;;;5.50;99.90;;;;;;5093149;28;20034;-64
2020/12/05 12:10:12;;;;;;;20.55;13.80;;;5.70;99.90;;;;;;5092462;28;20052;-63
2020/12/05 12:12:38;;;;;;;21.67;15.02;;;6.00;99.90;;;;;;5108781;28;20099;-61
2020/12/05 12:15:04;;;;;;;19.15;14.68;;;6.10;99.90;;;;;;5105647;28;20166;-61
2020/12/05 12:17:30;;;;;;;18.33;13.82;;;6.30;99.90;;;;;;5091615;28;20024;-60
2020/12/05 12:19:55;;;;;;;21.52;14.35;;;6.10;99.90;;;;;;5072405;28;20435;-61
2020/12/05 12:22:21;;;;;;;18.67;13.48;;;5.80;99.90;;;;;;5072335;28;20465;-61
2020/12/05 12:24:47;;;;;;;15.88;12.48;;;5.80;99.90;;;;;;5071645;28;20619;-60
2020/12/05 12:27:12;;;;;;;18.45;12.32;;;5.50;99.90;;;;;;5072645;28;20063;-61
2020/12/05 12:29:38;;;;;;;16.73;12.43;;;5.60;99.90;;;;;;5074443;28;20461;-59
2020/12/05 12:32:04;;;;;;;17.33;10.85;;;5.60;99.90;;;;;;5080231;28;20430;-60
2020/12/05 12:34:29;;;;;;;14.88;12.15;;;5.60;99.90;;;;;;5108033;28;20460;-59
2020/12/05 12:36:55;;;;;;;16.20;12.10;;;5.50;99.90;;;;;;5097081;28;20402;-69
2020/12/05 12:39:20;;;;;;;14.52;11.60;;;5.50;99.90;;;;;;5102216;28;20436;-71
2020/12/05 12:41:46;;;;;;;16.33;10.63;;;5.50;99.90;;;;;;5101297;28;20433;-59
2020/12/05 12:44:12;;;;;;;14.95;11.45;;;5.70;99.90;;;;;;5077096;28;20540;-60
2020/12/05 12:49:22;;;;;;;12.63;10.23;;;5.70;99.90;;;;;;5100731;28;20073;-59